This is the latest recevied weather packets stored in our database for station/object DL2GPS-3. If no packets are shown the sender has not sent any weather packets the latest 10 day(s).
| Time | Temp. | Humidity | Pressure | Rain* | Wind** | Luminosity | Snow |
|---|---|---|---|---|---|---|---|
| 1788517048 | 26.67° C | 45% | 1023 hPa | - | - | - | - |
| 1788516443 | 26.67° C | 44% | 1023.1 hPa | - | - | - | - |
| 1788515838 | 26.11° C | 45% | 1023.2 hPa | - | - | - | - |
| 1788515234 | 26.67° C | 43% | 1023.2 hPa | - | - | - | - |
| 1788514629 | 26.67° C | 44% | 1023.3 hPa | - | - | - | - |
| 1788514024 | 26.11° C | 44% | 1023.4 hPa | - | - | - | - |
| 1788513419 | 26.67° C | 43% | 1023.5 hPa | - | - | - | - |
| 1788512814 | 26.11° C | 44% | 1023.5 hPa | - | - | - | - |
| 1788512209 | 25.56° C | 44% | 1023.5 hPa | - | - | - | - |
| 1788511604 | 25.56° C | 44% | 1023.5 hPa | - | - | - | - |
| 1788510999 | 25.56° C | 43% | 1023.5 hPa | - | - | - | - |
| 1788510394 | 25.56° C | 43% | 1023.7 hPa | - | - | - | - |
| 1788509789 | 26.11° C | 43% | 1023.5 hPa | - | - | - | - |
| 1788509184 | 26.11° C | 43% | 1023.6 hPa | - | - | - | - |
| 1788508579 | 26.67° C | 44% | 1023.6 hPa | - | - | - | - |
| 1788507974 | 26.67° C | 42% | 1023.6 hPa | - | - | - | - |
| 1788507369 | 26.67° C | 42% | 1023.7 hPa | - | - | - | - |
| 1788506775 | 26.67° C | 43% | 1023.7 hPa | - | - | - | - |
| 1788506159 | 26.67° C | 45% | 1023.8 hPa | - | - | - | - |
| 1788505554 | 26.11° C | 46% | 1023.9 hPa | - | - | - | - |
| 1788504950 | 25.56° C | 47% | 1023.9 hPa | - | - | - | - |
| 1788504346 | 25.56° C | 47% | 1024 hPa | - | - | - | - |
| 1788503740 | 26.11° C | 45% | 1023.8 hPa | - | - | - | - |
| 1788503136 | 30° C | 38% | 1024 hPa | - | - | - | - |
| 1788502530 | 31.11° C | 36% | 1024 hPa | - | - | - | - |
* Rain since midnight (hover to see other rain measurements)
** Current wind speed in m/s (hover to see current wind gust speed)